sensor_id;sensor_type;location;lat;lon;timestamp;P1;durP1;ratioP1;P2;durP2;ratioP2
74789;SDS011;63318;52.406;13.416;2023-02-28T00:01:18;9.80;;;4.00;;
74789;SDS011;63318;52.406;13.416;2023-02-28T00:03:46;10.60;;;5.30;;
74789;SDS011;63318;52.406;13.416;2023-02-28T00:06:15;9.50;;;4.70;;
74789;SDS011;63318;52.406;13.416;2023-02-28T00:08:44;14.70;;;5.60;;
74789;SDS011;63318;52.406;13.416;2023-02-28T00:11:13;10.20;;;4.60;;
74789;SDS011;63318;52.406;13.416;2023-02-28T00:13:46;9.50;;;3.90;;
74789;SDS011;63318;52.406;13.416;2023-02-28T00:16:16;7.80;;;3.60;;
74789;SDS011;63318;52.406;13.416;2023-02-28T00:18:46;6.40;;;3.40;;
74789;SDS011;63318;52.406;13.416;2023-02-28T00:21:16;9.40;;;3.50;;
74789;SDS011;63318;52.406;13.416;2023-02-28T00:23:45;7.70;;;3.70;;
74789;SDS011;63318;52.406;13.416;2023-02-28T00:26:16;8.20;;;3.60;;
74789;SDS011;63318;52.406;13.416;2023-02-28T00:28:44;7.30;;;3.60;;
74789;SDS011;63318;52.406;13.416;2023-02-28T00:31:13;6.50;;;3.20;;
74789;SDS011;63318;52.406;13.416;2023-02-28T00:33:42;5.50;;;2.80;;
74789;SDS011;63318;52.406;13.416;2023-02-28T00:36:10;7.90;;;2.80;;
74789;SDS011;63318;52.406;13.416;2023-02-28T00:38:39;7.00;;;3.60;;
74789;SDS011;63318;52.406;13.416;2023-02-28T00:41:08;7.10;;;3.10;;
74789;SDS011;63318;52.406;13.416;2023-02-28T00:43:37;8.10;;;3.20;;
74789;SDS011;63318;52.406;13.416;2023-02-28T00:46:06;7.20;;;3.20;;
74789;SDS011;63318;52.406;13.416;2023-02-28T00:48:35;8.70;;;3.70;;
74789;SDS011;63318;52.406;13.416;2023-02-28T00:51:04;8.50;;;3.70;;
74789;SDS011;63318;52.406;13.416;2023-02-28T00:53:33;5.70;;;3.10;;
74789;SDS011;63318;52.406;13.416;2023-02-28T00:56:08;6.30;;;3.10;;
74789;SDS011;63318;52.406;13.416;2023-02-28T00:58:45;7.50;;;3.10;;
74789;SDS011;63318;52.406;13.416;2023-02-28T01:01:13;8.10;;;3.50;;
74789;SDS011;63318;52.406;13.416;2023-02-28T01:03:41;9.60;;;3.50;;
74789;SDS011;63318;52.406;13.416;2023-02-28T01:06:09;9.20;;;3.30;;
74789;SDS011;63318;52.406;13.416;2023-02-28T01:08:38;7.70;;;3.10;;
74789;SDS011;63318;52.406;13.416;2023-02-28T01:11:10;8.00;;;3.20;;
74789;SDS011;63318;52.406;13.416;2023-02-28T01:13:41;6.40;;;3.60;;
74789;SDS011;63318;52.406;13.416;2023-02-28T01:16:10;8.10;;;3.30;;
74789;SDS011;63318;52.406;13.416;2023-02-28T01:18:39;7.60;;;3.30;;
74789;SDS011;63318;52.406;13.416;2023-02-28T01:21:09;6.80;;;3.10;;
74789;SDS011;63318;52.406;13.416;2023-02-28T01:23:39;8.20;;;3.40;;
74789;SDS011;63318;52.406;13.416;2023-02-28T01:26:09;7.50;;;3.50;;
74789;SDS011;63318;52.406;13.416;2023-02-28T01:28:40;7.50;;;2.90;;
74789;SDS011;63318;52.406;13.416;2023-02-28T01:31:09;6.60;;;3.40;;
74789;SDS011;63318;52.406;13.416;2023-02-28T01:33:38;6.10;;;2.90;;
74789;SDS011;63318;52.406;13.416;2023-02-28T01:36:09;6.00;;;2.90;;
74789;SDS011;63318;52.406;13.416;2023-02-28T01:38:39;7.40;;;3.50;;
74789;SDS011;63318;52.406;13.416;2023-02-28T01:41:08;6.90;;;3.40;;
74789;SDS011;63318;52.406;13.416;2023-02-28T01:43:55;8.10;;;3.10;;
74789;SDS011;63318;52.406;13.416;2023-02-28T01:46:28;7.70;;;3.50;;
74789;SDS011;63318;52.406;13.416;2023-02-28T01:49:00;6.40;;;3.20;;
74789;SDS011;63318;52.406;13.416;2023-02-28T01:51:37;6.10;;;3.30;;
74789;SDS011;63318;52.406;13.416;2023-02-28T01:54:10;8.60;;;3.30;;
74789;SDS011;63318;52.406;13.416;2023-02-28T01:56:43;7.70;;;3.20;;
74789;SDS011;63318;52.406;13.416;2023-02-28T01:59:17;7.70;;;3.10;;
74789;SDS011;63318;52.406;13.416;2023-02-28T02:01:51;8.70;;;3.00;;
74789;SDS011;63318;52.406;13.416;2023-02-28T02:04:21;8.90;;;2.90;;
74789;SDS011;63318;52.406;13.416;2023-02-28T02:06:52;6.80;;;2.90;;
74789;SDS011;63318;52.406;13.416;2023-02-28T02:09:21;8.00;;;3.50;;
74789;SDS011;63318;52.406;13.416;2023-02-28T02:11:50;8.10;;;3.10;;
74789;SDS011;63318;52.406;13.416;2023-02-28T02:17:17;10.10;;;3.50;;
74789;SDS011;63318;52.406;13.416;2023-02-28T02:25:54;7.90;;;2.90;;
74789;SDS011;63318;52.406;13.416;2023-02-28T02:28:39;6.00;;;2.90;;
74789;SDS011;63318;52.406;13.416;2023-02-28T02:31:36;6.40;;;3.20;;
74789;SDS011;63318;52.406;13.416;2023-02-28T02:37:27;6.70;;;2.90;;
74789;SDS011;63318;52.406;13.416;2023-02-28T02:40:06;5.70;;;2.80;;
74789;SDS011;63318;52.406;13.416;2023-02-28T02:42:41;8.80;;;2.80;;
74789;SDS011;63318;52.406;13.416;2023-02-28T02:45:17;8.50;;;3.10;;
74789;SDS011;63318;52.406;13.416;2023-02-28T02:47:49;6.30;;;3.10;;
74789;SDS011;63318;52.406;13.416;2023-02-28T02:50:19;7.30;;;3.20;;
74789;SDS011;63318;52.406;13.416;2023-02-28T02:52:55;6.40;;;2.90;;
74789;SDS011;63318;52.406;13.416;2023-02-28T02:55:27;7.60;;;3.00;;
74789;SDS011;63318;52.406;13.416;2023-02-28T02:57:58;6.80;;;2.50;;
74789;SDS011;63318;52.406;13.416;2023-02-28T03:00:30;6.70;;;3.20;;
74789;SDS011;63318;52.406;13.416;2023-02-28T03:03:02;5.80;;;2.50;;
74789;SDS011;63318;52.406;13.416;2023-02-28T03:05:33;8.50;;;3.20;;
74789;SDS011;63318;52.406;13.416;2023-02-28T03:08:08;6.80;;;3.30;;
74789;SDS011;63318;52.406;13.416;2023-02-28T03:10:38;10.50;;;3.10;;
74789;SDS011;63318;52.406;13.416;2023-02-28T03:13:14;9.70;;;3.30;;
74789;SDS011;63318;52.406;13.416;2023-02-28T03:16:07;7.10;;;3.10;;
74789;SDS011;63318;52.406;13.416;2023-02-28T03:18:53;5.40;;;2.70;;
74789;SDS011;63318;52.406;13.416;2023-02-28T03:21:30;7.50;;;2.80;;
74789;SDS011;63318;52.406;13.416;2023-02-28T03:24:05;5.60;;;3.00;;
74789;SDS011;63318;52.406;13.416;2023-02-28T03:26:39;7.40;;;2.80;;
74789;SDS011;63318;52.406;13.416;2023-02-28T03:29:13;6.30;;;3.10;;
74789;SDS011;63318;52.406;13.416;2023-02-28T03:31:50;6.40;;;3.10;;
74789;SDS011;63318;52.406;13.416;2023-02-28T03:34:25;5.70;;;2.50;;
74789;SDS011;63318;52.406;13.416;2023-02-28T03:36:57;6.80;;;2.90;;
74789;SDS011;63318;52.406;13.416;2023-02-28T03:39:33;7.10;;;3.00;;
74789;SDS011;63318;52.406;13.416;2023-02-28T03:42:05;6.50;;;2.90;;
74789;SDS011;63318;52.406;13.416;2023-02-28T03:44:38;9.60;;;3.20;;
74789;SDS011;63318;52.406;13.416;2023-02-28T03:47:10;6.70;;;2.90;;
74789;SDS011;63318;52.406;13.416;2023-02-28T03:49:44;7.20;;;3.40;;
74789;SDS011;63318;52.406;13.416;2023-02-28T03:52:17;6.30;;;2.90;;
74789;SDS011;63318;52.406;13.416;2023-02-28T03:54:50;8.30;;;3.20;;
74789;SDS011;63318;52.406;13.416;2023-02-28T03:57:25;6.90;;;3.20;;
74789;SDS011;63318;52.406;13.416;2023-02-28T04:00:00;7.70;;;3.30;;
74789;SDS011;63318;52.406;13.416;2023-02-28T04:02:32;7.50;;;2.90;;
74789;SDS011;63318;52.406;13.416;2023-02-28T04:05:01;6.60;;;3.10;;
74789;SDS011;63318;52.406;13.416;2023-02-28T04:07:30;6.90;;;3.30;;
74789;SDS011;63318;52.406;13.416;2023-02-28T04:09:58;6.50;;;3.40;;
74789;SDS011;63318;52.406;13.416;2023-02-28T04:12:27;6.30;;;3.50;;
74789;SDS011;63318;52.406;13.416;2023-02-28T04:14:55;9.70;;;3.30;;
74789;SDS011;63318;52.406;13.416;2023-02-28T04:17:24;6.80;;;3.60;;
74789;SDS011;63318;52.406;13.416;2023-02-28T04:19:52;8.60;;;3.50;;
74789;SDS011;63318;52.406;13.416;2023-02-28T04:22:21;7.10;;;3.10;;
74789;SDS011;63318;52.406;13.416;2023-02-28T04:24:49;5.80;;;3.70;;
74789;SDS011;63318;52.406;13.416;2023-02-28T04:27:17;9.40;;;3.60;;
74789;SDS011;63318;52.406;13.416;2023-02-28T04:29:46;9.50;;;4.10;;
74789;SDS011;63318;52.406;13.416;2023-02-28T04:32:15;8.70;;;3.50;;
74789;SDS011;63318;52.406;13.416;2023-02-28T04:34:43;9.10;;;3.40;;
74789;SDS011;63318;52.406;13.416;2023-02-28T04:37:11;7.50;;;3.60;;
74789;SDS011;63318;52.406;13.416;2023-02-28T04:39:40;9.20;;;3.30;;
74789;SDS011;63318;52.406;13.416;2023-02-28T04:42:09;6.80;;;3.20;;
74789;SDS011;63318;52.406;13.416;2023-02-28T04:44:38;8.00;;;3.50;;
74789;SDS011;63318;52.406;13.416;2023-02-28T04:47:07;7.00;;;3.00;;
74789;SDS011;63318;52.406;13.416;2023-02-28T04:49:35;6.80;;;3.60;;
74789;SDS011;63318;52.406;13.416;2023-02-28T04:52:03;9.90;;;3.40;;
74789;SDS011;63318;52.406;13.416;2023-02-28T04:54:32;6.90;;;3.00;;
74789;SDS011;63318;52.406;13.416;2023-02-28T04:57:00;7.10;;;2.90;;
74789;SDS011;63318;52.406;13.416;2023-02-28T04:59:28;6.20;;;3.20;;
74789;SDS011;63318;52.406;13.416;2023-02-28T05:01:56;7.10;;;3.20;;
74789;SDS011;63318;52.406;13.416;2023-02-28T05:04:25;8.80;;;3.80;;
74789;SDS011;63318;52.406;13.416;2023-02-28T05:06:53;9.10;;;3.60;;
74789;SDS011;63318;52.406;13.416;2023-02-28T05:09:21;9.00;;;3.60;;
74789;SDS011;63318;52.406;13.416;2023-02-28T05:11:49;8.20;;;4.10;;
74789;SDS011;63318;52.406;13.416;2023-02-28T05:14:18;7.60;;;3.50;;
74789;SDS011;63318;52.406;13.416;2023-02-28T05:16:46;8.60;;;3.80;;
74789;SDS011;63318;52.406;13.416;2023-02-28T05:19:15;8.60;;;3.70;;
74789;SDS011;63318;52.406;13.416;2023-02-28T05:21:48;7.20;;;4.30;;
74789;SDS011;63318;52.406;13.416;2023-02-28T05:24:18;8.20;;;4.00;;
74789;SDS011;63318;52.406;13.416;2023-02-28T05:26:46;7.40;;;3.60;;
74789;SDS011;63318;52.406;13.416;2023-02-28T05:29:16;8.80;;;3.90;;
74789;SDS011;63318;52.406;13.416;2023-02-28T05:31:44;11.70;;;3.90;;
74789;SDS011;63318;52.406;13.416;2023-02-28T05:34:13;9.10;;;4.00;;
74789;SDS011;63318;52.406;13.416;2023-02-28T05:36:41;9.40;;;3.90;;
74789;SDS011;63318;52.406;13.416;2023-02-28T05:39:09;8.00;;;3.90;;
74789;SDS011;63318;52.406;13.416;2023-02-28T05:41:38;8.10;;;4.10;;
74789;SDS011;63318;52.406;13.416;2023-02-28T05:44:09;7.30;;;4.00;;
74789;SDS011;63318;52.406;13.416;2023-02-28T05:46:38;10.00;;;4.10;;
74789;SDS011;63318;52.406;13.416;2023-02-28T05:49:07;8.20;;;4.20;;
74789;SDS011;63318;52.406;13.416;2023-02-28T05:51:35;8.90;;;4.40;;
74789;SDS011;63318;52.406;13.416;2023-02-28T05:54:04;8.20;;;4.10;;
74789;SDS011;63318;52.406;13.416;2023-02-28T05:56:33;9.50;;;4.00;;
74789;SDS011;63318;52.406;13.416;2023-02-28T05:59:02;8.20;;;3.50;;
74789;SDS011;63318;52.406;13.416;2023-02-28T06:01:34;9.70;;;4.80;;
74789;SDS011;63318;52.406;13.416;2023-02-28T06:04:05;10.60;;;4.90;;
74789;SDS011;63318;52.406;13.416;2023-02-28T06:06:34;13.90;;;5.10;;
74789;SDS011;63318;52.406;13.416;2023-02-28T06:09:03;13.90;;;5.30;;
74789;SDS011;63318;52.406;13.416;2023-02-28T06:11:31;15.50;;;5.40;;
74789;SDS011;63318;52.406;13.416;2023-02-28T06:14:00;11.80;;;5.90;;
74789;SDS011;63318;52.406;13.416;2023-02-28T06:16:29;14.00;;;5.50;;
74789;SDS011;63318;52.406;13.416;2023-02-28T06:19:00;12.40;;;5.60;;
74789;SDS011;63318;52.406;13.416;2023-02-28T06:21:32;10.00;;;5.20;;
74789;SDS011;63318;52.406;13.416;2023-02-28T06:24:00;11.40;;;5.70;;
74789;SDS011;63318;52.406;13.416;2023-02-28T06:26:29;13.90;;;6.10;;
74789;SDS011;63318;52.406;13.416;2023-02-28T06:28:58;11.40;;;5.20;;
74789;SDS011;63318;52.406;13.416;2023-02-28T06:31:26;11.40;;;5.10;;
74789;SDS011;63318;52.406;13.416;2023-02-28T06:33:55;11.40;;;6.10;;
74789;SDS011;63318;52.406;13.416;2023-02-28T06:36:23;13.10;;;6.00;;
74789;SDS011;63318;52.406;13.416;2023-02-28T06:38:51;10.80;;;5.50;;
74789;SDS011;63318;52.406;13.416;2023-02-28T06:41:20;9.50;;;5.20;;
74789;SDS011;63318;52.406;13.416;2023-02-28T06:43:49;10.40;;;6.10;;
74789;SDS011;63318;52.406;13.416;2023-02-28T06:46:18;13.30;;;5.10;;
74789;SDS011;63318;52.406;13.416;2023-02-28T06:48:47;12.00;;;5.70;;
74789;SDS011;63318;52.406;13.416;2023-02-28T06:51:16;14.30;;;7.00;;
74789;SDS011;63318;52.406;13.416;2023-02-28T06:53:45;16.00;;;6.00;;
74789;SDS011;63318;52.406;13.416;2023-02-28T06:56:14;11.90;;;5.20;;
74789;SDS011;63318;52.406;13.416;2023-02-28T06:58:46;10.10;;;5.20;;
74789;SDS011;63318;52.406;13.416;2023-02-28T07:01:16;10.10;;;5.00;;
74789;SDS011;63318;52.406;13.416;2023-02-28T07:03:45;12.80;;;6.00;;
74789;SDS011;63318;52.406;13.416;2023-02-28T07:06:14;14.00;;;5.80;;
74789;SDS011;63318;52.406;13.416;2023-02-28T07:08:42;12.00;;;5.30;;
74789;SDS011;63318;52.406;13.416;2023-02-28T07:11:11;12.80;;;6.10;;
74789;SDS011;63318;52.406;13.416;2023-02-28T07:13:39;13.60;;;6.20;;
74789;SDS011;63318;52.406;13.416;2023-02-28T07:16:09;15.10;;;6.30;;
74789;SDS011;63318;52.406;13.416;2023-02-28T07:18:38;12.50;;;5.30;;
74789;SDS011;63318;52.406;13.416;2023-02-28T07:21:07;12.10;;;6.60;;
74789;SDS011;63318;52.406;13.416;2023-02-28T07:23:36;10.90;;;5.50;;
74789;SDS011;63318;52.406;13.416;2023-02-28T07:26:06;8.50;;;5.10;;
74789;SDS011;63318;52.406;13.416;2023-02-28T07:28:37;14.40;;;5.80;;
74789;SDS011;63318;52.406;13.416;2023-02-28T07:31:06;13.00;;;6.20;;
74789;SDS011;63318;52.406;13.416;2023-02-28T07:33:35;12.70;;;6.70;;
74789;SDS011;63318;52.406;13.416;2023-02-28T07:36:13;11.00;;;5.30;;
74789;SDS011;63318;52.406;13.416;2023-02-28T07:38:44;10.70;;;4.70;;
74789;SDS011;63318;52.406;13.416;2023-02-28T07:41:14;10.90;;;5.40;;
74789;SDS011;63318;52.406;13.416;2023-02-28T07:43:43;13.60;;;5.90;;
74789;SDS011;63318;52.406;13.416;2023-02-28T07:46:13;10.50;;;5.30;;
74789;SDS011;63318;52.406;13.416;2023-02-28T07:48:42;9.90;;;5.00;;
74789;SDS011;63318;52.406;13.416;2023-02-28T07:51:11;10.00;;;4.90;;
74789;SDS011;63318;52.406;13.416;2023-02-28T07:53:39;9.70;;;4.90;;
74789;SDS011;63318;52.406;13.416;2023-02-28T07:56:10;10.40;;;4.90;;
74789;SDS011;63318;52.406;13.416;2023-02-28T07:58:39;9.40;;;5.10;;
74789;SDS011;63318;52.406;13.416;2023-02-28T08:01:09;8.50;;;4.60;;
74789;SDS011;63318;52.406;13.416;2023-02-28T08:03:39;9.50;;;5.30;;
74789;SDS011;63318;52.406;13.416;2023-02-28T08:06:08;8.80;;;4.40;;
74789;SDS011;63318;52.406;13.416;2023-02-28T08:08:42;9.30;;;3.60;;
74789;SDS011;63318;52.406;13.416;2023-02-28T08:11:10;9.50;;;4.10;;
74789;SDS011;63318;52.406;13.416;2023-02-28T08:13:38;10.00;;;4.10;;
74789;SDS011;63318;52.406;13.416;2023-02-28T08:16:07;8.30;;;4.30;;
74789;SDS011;63318;52.406;13.416;2023-02-28T08:18:35;8.50;;;4.50;;
74789;SDS011;63318;52.406;13.416;2023-02-28T08:21:07;10.50;;;4.60;;
74789;SDS011;63318;52.406;13.416;2023-02-28T08:26:04;7.00;;;3.70;;
74789;SDS011;63318;52.406;13.416;2023-02-28T08:28:34;9.90;;;3.90;;
74789;SDS011;63318;52.406;13.416;2023-02-28T08:31:02;9.30;;;3.80;;
74789;SDS011;63318;52.406;13.416;2023-02-28T08:33:35;7.40;;;3.60;;
74789;SDS011;63318;52.406;13.416;2023-02-28T08:36:05;7.20;;;4.30;;
74789;SDS011;63318;52.406;13.416;2023-02-28T08:38:35;7.20;;;3.00;;
74789;SDS011;63318;52.406;13.416;2023-02-28T08:41:05;6.90;;;3.20;;
74789;SDS011;63318;52.406;13.416;2023-02-28T08:43:36;8.30;;;3.40;;
74789;SDS011;63318;52.406;13.416;2023-02-28T08:46:06;10.40;;;3.70;;
74789;SDS011;63318;52.406;13.416;2023-02-28T08:48:37;6.30;;;3.10;;
74789;SDS011;63318;52.406;13.416;2023-02-28T08:51:06;7.40;;;3.00;;
74789;SDS011;63318;52.406;13.416;2023-02-28T08:53:38;6.90;;;2.70;;
74789;SDS011;63318;52.406;13.416;2023-02-28T08:56:09;6.90;;;2.60;;
74789;SDS011;63318;52.406;13.416;2023-02-28T08:58:39;5.50;;;2.70;;
74789;SDS011;63318;52.406;13.416;2023-02-28T09:01:11;6.50;;;2.50;;
74789;SDS011;63318;52.406;13.416;2023-02-28T09:06:08;5.00;;;2.10;;
74789;SDS011;63318;52.406;13.416;2023-02-28T09:08:38;6.30;;;2.30;;
74789;SDS011;63318;52.406;13.416;2023-02-28T09:11:06;6.70;;;2.20;;
74789;SDS011;63318;52.406;13.416;2023-02-28T09:13:36;6.30;;;2.60;;
74789;SDS011;63318;52.406;13.416;2023-02-28T09:16:05;6.70;;;2.60;;
74789;SDS011;63318;52.406;13.416;2023-02-28T09:18:35;7.80;;;2.40;;
74789;SDS011;63318;52.406;13.416;2023-02-28T09:21:04;7.90;;;3.00;;
74789;SDS011;63318;52.406;13.416;2023-02-28T09:23:33;5.50;;;2.30;;
74789;SDS011;63318;52.406;13.416;2023-02-28T09:26:02;4.70;;;2.00;;
74789;SDS011;63318;52.406;13.416;2023-02-28T09:28:30;6.30;;;2.30;;
74789;SDS011;63318;52.406;13.416;2023-02-28T09:30:58;6.50;;;1.80;;
74789;SDS011;63318;52.406;13.416;2023-02-28T09:33:26;5.00;;;2.00;;
74789;SDS011;63318;52.406;13.416;2023-02-28T09:35:59;5.20;;;2.00;;
74789;SDS011;63318;52.406;13.416;2023-02-28T09:38:28;6.10;;;2.30;;
74789;SDS011;63318;52.406;13.416;2023-02-28T09:40:57;4.90;;;1.90;;
74789;SDS011;63318;52.406;13.416;2023-02-28T09:43:29;4.20;;;1.70;;
74789;SDS011;63318;52.406;13.416;2023-02-28T09:46:02;6.20;;;1.90;;
74789;SDS011;63318;52.406;13.416;2023-02-28T09:48:39;6.00;;;2.20;;
74789;SDS011;63318;52.406;13.416;2023-02-28T09:51:14;4.30;;;1.80;;
74789;SDS011;63318;52.406;13.416;2023-02-28T09:53:53;3.40;;;1.50;;
74789;SDS011;63318;52.406;13.416;2023-02-28T09:56:22;4.50;;;1.50;;
74789;SDS011;63318;52.406;13.416;2023-02-28T09:58:55;5.00;;;1.50;;
74789;SDS011;63318;52.406;13.416;2023-02-28T10:01:29;5.60;;;2.00;;
74789;SDS011;63318;52.406;13.416;2023-02-28T10:04:05;4.20;;;1.50;;
74789;SDS011;63318;52.406;13.416;2023-02-28T10:06:44;3.90;;;1.60;;
74789;SDS011;63318;52.406;13.416;2023-02-28T10:09:15;4.70;;;1.50;;
74789;SDS011;63318;52.406;13.416;2023-02-28T10:11:46;4.50;;;1.60;;
74789;SDS011;63318;52.406;13.416;2023-02-28T10:14:17;4.20;;;1.40;;
74789;SDS011;63318;52.406;13.416;2023-02-28T10:16:48;4.00;;;1.60;;
74789;SDS011;63318;52.406;13.416;2023-02-28T10:19:23;3.90;;;1.50;;
74789;SDS011;63318;52.406;13.416;2023-02-28T10:21:57;4.40;;;1.40;;
74789;SDS011;63318;52.406;13.416;2023-02-28T10:24:30;4.00;;;1.50;;
74789;SDS011;63318;52.406;13.416;2023-02-28T10:27:05;3.60;;;1.30;;
74789;SDS011;63318;52.406;13.416;2023-02-28T10:29:40;5.10;;;1.30;;
74789;SDS011;63318;52.406;13.416;2023-02-28T10:32:12;3.10;;;1.10;;
74789;SDS011;63318;52.406;13.416;2023-02-28T10:34:44;3.50;;;1.60;;
74789;SDS011;63318;52.406;13.416;2023-02-28T10:37:17;5.40;;;1.40;;
74789;SDS011;63318;52.406;13.416;2023-02-28T10:39:47;4.10;;;1.50;;
74789;SDS011;63318;52.406;13.416;2023-02-28T10:42:23;4.60;;;1.50;;
74789;SDS011;63318;52.406;13.416;2023-02-28T10:45:07;3.30;;;1.30;;
74789;SDS011;63318;52.406;13.416;2023-02-28T10:47:47;3.20;;;1.10;;
74789;SDS011;63318;52.406;13.416;2023-02-28T10:50:32;3.40;;;1.30;;
74789;SDS011;63318;52.406;13.416;2023-02-28T10:53:24;5.60;;;1.50;;
74789;SDS011;63318;52.406;13.416;2023-02-28T10:56:00;3.60;;;1.60;;
74789;SDS011;63318;52.406;13.416;2023-02-28T10:58:31;3.80;;;1.40;;
74789;SDS011;63318;52.406;13.416;2023-02-28T11:01:14;4.70;;;1.70;;
74789;SDS011;63318;52.406;13.416;2023-02-28T11:03:44;3.70;;;1.40;;
74789;SDS011;63318;52.406;13.416;2023-02-28T11:06:18;3.60;;;1.20;;
74789;SDS011;63318;52.406;13.416;2023-02-28T11:08:49;4.20;;;1.40;;
74789;SDS011;63318;52.406;13.416;2023-02-28T11:11:19;2.80;;;1.00;;
74789;SDS011;63318;52.406;13.416;2023-02-28T11:13:51;4.40;;;1.60;;
74789;SDS011;63318;52.406;13.416;2023-02-28T11:16:22;5.10;;;1.80;;
74789;SDS011;63318;52.406;13.416;2023-02-28T11:19:02;5.60;;;1.70;;
74789;SDS011;63318;52.406;13.416;2023-02-28T11:21:45;3.80;;;1.40;;
74789;SDS011;63318;52.406;13.416;2023-02-28T11:24:21;4.90;;;1.50;;
74789;SDS011;63318;52.406;13.416;2023-02-28T11:26:53;3.60;;;1.70;;
74789;SDS011;63318;52.406;13.416;2023-02-28T11:29:22;6.00;;;1.40;;
74789;SDS011;63318;52.406;13.416;2023-02-28T11:32:06;4.30;;;1.30;;
74789;SDS011;63318;52.406;13.416;2023-02-28T11:34:43;4.50;;;1.50;;
74789;SDS011;63318;52.406;13.416;2023-02-28T11:37:13;3.50;;;1.20;;
74789;SDS011;63318;52.406;13.416;2023-02-28T11:39:45;3.80;;;1.00;;
74789;SDS011;63318;52.406;13.416;2023-02-28T11:45:15;3.90;;;1.60;;
74789;SDS011;63318;52.406;13.416;2023-02-28T11:47:52;4.20;;;1.60;;
74789;SDS011;63318;52.406;13.416;2023-02-28T11:50:31;9.30;;;1.70;;
74789;SDS011;63318;52.406;13.416;2023-02-28T11:53:14;5.60;;;1.60;;
74789;SDS011;63318;52.406;13.416;2023-02-28T11:55:49;5.10;;;1.50;;
74789;SDS011;63318;52.406;13.416;2023-02-28T11:58:29;4.70;;;1.70;;
74789;SDS011;63318;52.406;13.416;2023-02-28T12:01:13;3.80;;;1.60;;
74789;SDS011;63318;52.406;13.416;2023-02-28T12:03:53;4.20;;;1.60;;
74789;SDS011;63318;52.406;13.416;2023-02-28T12:06:31;4.00;;;1.70;;
74789;SDS011;63318;52.406;13.416;2023-02-28T12:09:09;4.50;;;1.70;;
74789;SDS011;63318;52.406;13.416;2023-02-28T12:11:50;8.80;;;1.70;;
74789;SDS011;63318;52.406;13.416;2023-02-28T12:14:28;4.50;;;1.70;;
74789;SDS011;63318;52.406;13.416;2023-02-28T12:17:20;4.30;;;1.60;;
74789;SDS011;63318;52.406;13.416;2023-02-28T12:19:57;5.50;;;2.00;;
74789;SDS011;63318;52.406;13.416;2023-02-28T12:22:36;3.00;;;1.40;;
74789;SDS011;63318;52.406;13.416;2023-02-28T12:25:26;4.90;;;1.70;;
74789;SDS011;63318;52.406;13.416;2023-02-28T12:28:10;5.00;;;1.60;;
74789;SDS011;63318;52.406;13.416;2023-02-28T12:30:44;3.80;;;1.70;;
74789;SDS011;63318;52.406;13.416;2023-02-28T12:33:22;4.30;;;1.70;;
74789;SDS011;63318;52.406;13.416;2023-02-28T12:35:56;3.60;;;1.50;;
74789;SDS011;63318;52.406;13.416;2023-02-28T12:38:27;3.90;;;1.50;;
74789;SDS011;63318;52.406;13.416;2023-02-28T12:41:04;5.00;;;1.70;;
74789;SDS011;63318;52.406;13.416;2023-02-28T12:43:40;5.40;;;2.20;;
74789;SDS011;63318;52.406;13.416;2023-02-28T12:48:42;4.60;;;2.00;;
74789;SDS011;63318;52.406;13.416;2023-02-28T12:51:12;5.60;;;2.10;;
74789;SDS011;63318;52.406;13.416;2023-02-28T12:53:51;4.80;;;2.00;;
74789;SDS011;63318;52.406;13.416;2023-02-28T12:56:29;4.20;;;1.90;;
74789;SDS011;63318;52.406;13.416;2023-02-28T12:59:07;4.40;;;1.70;;
74789;SDS011;63318;52.406;13.416;2023-02-28T13:07:59;5.50;;;1.70;;
74789;SDS011;63318;52.406;13.416;2023-02-28T13:10:41;6.90;;;2.60;;
74789;SDS011;63318;52.406;13.416;2023-02-28T13:13:16;6.20;;;2.10;;
74789;SDS011;63318;52.406;13.416;2023-02-28T13:18:37;4.30;;;1.80;;
74789;SDS011;63318;52.406;13.416;2023-02-28T13:21:08;5.60;;;2.10;;
74789;SDS011;63318;52.406;13.416;2023-02-28T13:24:02;4.20;;;1.90;;
74789;SDS011;63318;52.406;13.416;2023-02-28T13:29:36;5.50;;;1.90;;
74789;SDS011;63318;52.406;13.416;2023-02-28T13:44:14;4.40;;;1.80;;
74789;SDS011;63318;52.406;13.416;2023-02-28T13:49:54;3.90;;;1.60;;
74789;SDS011;63318;52.406;13.416;2023-02-28T13:52:43;5.80;;;2.00;;
74789;SDS011;63318;52.406;13.416;2023-02-28T13:58:15;3.80;;;1.70;;
74789;SDS011;63318;52.406;13.416;2023-02-28T14:01:03;4.10;;;1.70;;
74789;SDS011;63318;52.406;13.416;2023-02-28T14:06:47;5.40;;;2.20;;
74789;SDS011;63318;52.406;13.416;2023-02-28T14:09:18;4.30;;;1.80;;
74789;SDS011;63318;52.406;13.416;2023-02-28T14:11:51;5.20;;;1.90;;
74789;SDS011;63318;52.406;13.416;2023-02-28T14:19:48;4.30;;;1.80;;
74789;SDS011;63318;52.406;13.416;2023-02-28T14:22:19;5.40;;;1.90;;
74789;SDS011;63318;52.406;13.416;2023-02-28T14:27:44;4.80;;;2.00;;
74789;SDS011;63318;52.406;13.416;2023-02-28T14:30:40;4.60;;;1.70;;
74789;SDS011;63318;52.406;13.416;2023-02-28T14:33:26;5.40;;;2.50;;
74789;SDS011;63318;52.406;13.416;2023-02-28T14:36:07;3.40;;;1.50;;
74789;SDS011;63318;52.406;13.416;2023-02-28T14:38:41;4.10;;;1.80;;
74789;SDS011;63318;52.406;13.416;2023-02-28T14:41:14;3.90;;;1.80;;
74789;SDS011;63318;52.406;13.416;2023-02-28T14:43:50;5.00;;;2.00;;
74789;SDS011;63318;52.406;13.416;2023-02-28T14:46:20;5.10;;;2.20;;
74789;SDS011;63318;52.406;13.416;2023-02-28T14:48:50;4.10;;;1.80;;
74789;SDS011;63318;52.406;13.416;2023-02-28T14:51:22;4.50;;;2.00;;
74789;SDS011;63318;52.406;13.416;2023-02-28T14:53:51;5.50;;;1.90;;
74789;SDS011;63318;52.406;13.416;2023-02-28T14:56:24;5.60;;;2.00;;
74789;SDS011;63318;52.406;13.416;2023-02-28T14:58:57;9.80;;;2.20;;
74789;SDS011;63318;52.406;13.416;2023-02-28T15:01:25;6.80;;;2.20;;
74789;SDS011;63318;52.406;13.416;2023-02-28T15:04:00;6.00;;;2.00;;
74789;SDS011;63318;52.406;13.416;2023-02-28T15:06:31;4.50;;;2.00;;
74789;SDS011;63318;52.406;13.416;2023-02-28T15:09:10;4.70;;;1.70;;
74789;SDS011;63318;52.406;13.416;2023-02-28T15:11:41;4.60;;;2.20;;
74789;SDS011;63318;52.406;13.416;2023-02-28T15:14:16;4.90;;;2.00;;
74789;SDS011;63318;52.406;13.416;2023-02-28T15:16:48;4.40;;;1.60;;
74789;SDS011;63318;52.406;13.416;2023-02-28T15:19:20;6.00;;;1.90;;
74789;SDS011;63318;52.406;13.416;2023-02-28T15:21:51;5.60;;;2.40;;
74789;SDS011;63318;52.406;13.416;2023-02-28T15:24:29;6.60;;;2.00;;
74789;SDS011;63318;52.406;13.416;2023-02-28T15:27:04;4.70;;;2.50;;
74789;SDS011;63318;52.406;13.416;2023-02-28T15:29:46;4.80;;;2.10;;
74789;SDS011;63318;52.406;13.416;2023-02-28T15:32:27;7.20;;;2.30;;
74789;SDS011;63318;52.406;13.416;2023-02-28T15:34:58;6.50;;;3.00;;
74789;SDS011;63318;52.406;13.416;2023-02-28T15:37:45;5.70;;;2.50;;
74789;SDS011;63318;52.406;13.416;2023-02-28T15:40:22;4.20;;;1.90;;
74789;SDS011;63318;52.406;13.416;2023-02-28T15:43:00;5.40;;;2.30;;
74789;SDS011;63318;52.406;13.416;2023-02-28T15:45:36;6.60;;;2.30;;
74789;SDS011;63318;52.406;13.416;2023-02-28T15:48:13;5.80;;;2.10;;
74789;SDS011;63318;52.406;13.416;2023-02-28T15:50:49;6.50;;;2.20;;
74789;SDS011;63318;52.406;13.416;2023-02-28T15:53:19;8.10;;;2.50;;
74789;SDS011;63318;52.406;13.416;2023-02-28T15:55:54;5.00;;;2.20;;
74789;SDS011;63318;52.406;13.416;2023-02-28T15:58:26;6.30;;;2.40;;
74789;SDS011;63318;52.406;13.416;2023-02-28T16:01:03;6.20;;;2.50;;
74789;SDS011;63318;52.406;13.416;2023-02-28T16:03:37;6.30;;;2.00;;
74789;SDS011;63318;52.406;13.416;2023-02-28T16:06:12;5.70;;;2.30;;
74789;SDS011;63318;52.406;13.416;2023-02-28T16:08:59;6.40;;;2.60;;